Time;durP1;ratioP1;P1;durP2;ratioP2;P2;SDS_P1;SDS_P2;PMS_P1;PMS_P2;Temp;Humidity;BMP_temperature;BMP_pressure;BME280_temperature;BME280_humidity;BME280_pressure;Samples;Min_cycle;Max_cycle;Signal;HPM_P1;HPM_P2
2021/06/05 00:00:09;;;;;;;6.47;5.53;;;24.90;57.00;;;;;;4952179;28;20126;-89
2021/06/05 00:02:35;;;;;;;7.00;5.32;;;24.90;57.20;;;;;;4977848;28;20026;-88
2021/06/05 00:05:02;;;;;;;5.82;5.03;;;24.90;57.10;;;;;;4930486;28;20029;-88
2021/06/05 00:07:28;;;;;;;6.32;5.18;;;24.80;57.10;;;;;;4947008;28;20070;-89
2021/06/05 00:09:54;;;;;;;6.53;5.43;;;24.80;57.20;;;;;;4928236;29;20027;-87
2021/06/05 00:12:24;;;;;;;6.88;5.45;;;24.80;57.20;;;;;;4946378;28;20046;-88
2021/06/05 00:14:50;;;;;;;6.15;5.43;;;24.80;57.30;;;;;;4980216;28;20019;-88
2021/06/05 00:17:17;;;;;;;6.13;5.07;;;24.70;57.30;;;;;;4978742;28;20039;-89
2021/06/05 00:19:43;;;;;;;7.15;5.40;;;24.70;57.30;;;;;;4928451;28;20502;-89
2021/06/05 00:22:09;;;;;;;6.47;5.55;;;24.70;57.40;;;;;;4955844;28;20471;-87
2021/06/05 00:24:35;;;;;;;6.78;5.28;;;24.70;57.40;;;;;;4946263;28;20090;-89
2021/06/05 00:27:01;;;;;;;7.10;5.63;;;24.70;57.50;;;;;;4962684;28;20383;-90
2021/06/05 00:29:27;;;;;;;6.80;5.85;;;24.70;57.50;;;;;;4952906;28;20055;-90
2021/06/05 00:31:52;;;;;;;6.65;5.40;;;24.60;57.40;;;;;;4957872;28;20467;-89
2021/06/05 00:34:18;;;;;;;6.43;5.38;;;24.60;57.50;;;;;;4959446;28;20503;-91
2021/06/05 00:36:44;;;;;;;6.40;5.45;;;24.60;57.50;;;;;;4971799;28;20059;-90
2021/06/05 00:39:11;;;;;;;7.25;6.18;;;24.60;57.60;;;;;;4960432;28;20480;-90
2021/06/05 00:41:38;;;;;;;6.75;5.75;;;24.60;57.70;;;;;;4958471;29;20039;-91
2021/06/05 00:44:07;;;;;;;7.53;5.63;;;24.50;57.70;;;;;;4934933;28;20036;-91
2021/06/05 00:46:35;;;;;;;6.65;5.75;;;24.50;57.80;;;;;;4938794;28;20030;-91
2021/06/05 00:49:04;;;;;;;7.60;6.25;;;24.50;57.80;;;;;;4955031;28;20096;-91
2021/06/05 00:51:49;;;;;;;6.40;5.47;;;24.50;57.90;;;;;;4977085;28;20122;-91
2021/06/05 00:54:19;;;;;;;6.60;5.72;;;24.40;58.00;;;;;;4961530;28;20027;-90
2021/06/05 00:56:51;;;;;;;7.10;6.22;;;24.50;57.90;;;;;;4942504;28;20034;-91
2021/06/05 00:59:18;;;;;;;8.55;6.13;;;24.40;57.90;;;;;;4974405;28;20038;-91
2021/06/05 01:01:43;;;;;;;7.00;6.25;;;24.40;57.90;;;;;;4956901;28;20061;-89
2021/06/05 01:04:10;;;;;;;7.55;6.25;;;24.40;57.90;;;;;;4942518;28;20027;-91
2021/06/05 01:06:42;;;;;;;6.95;6.03;;;24.40;57.90;;;;;;4961402;28;20023;-90
2021/06/05 01:09:15;;;;;;;6.70;5.93;;;24.30;57.90;;;;;;4975048;28;20472;-91
2021/06/05 01:12:06;;;;;;;7.53;6.50;;;24.30;58.00;;;;;;4955017;28;20459;-88
2021/06/05 01:14:42;;;;;;;7.63;6.15;;;24.30;58.10;;;;;;4957592;28;20073;-91
2021/06/05 01:17:16;;;;;;;6.88;5.55;;;24.30;57.90;;;;;;4956448;28;20081;-90
2021/06/05 01:19:49;;;;;;;7.00;6.07;;;24.20;57.90;;;;;;4958258;28;20062;-91
2021/06/05 01:22:17;;;;;;;7.28;6.22;;;24.20;58.00;;;;;;4958096;28;20432;-88
2021/06/05 01:24:55;;;;;;;7.20;6.13;;;24.20;58.00;;;;;;4968751;28;20049;-90
2021/06/05 01:27:26;;;;;;;7.25;6.28;;;24.20;58.10;;;;;;4963142;28;20031;-89
2021/06/05 01:29:55;;;;;;;7.13;6.28;;;24.20;58.10;;;;;;4942545;28;20037;-90
2021/06/05 01:32:23;;;;;;;7.93;6.82;;;24.20;58.10;;;;;;4975170;28;20018;-90
2021/06/05 01:34:53;;;;;;;7.18;6.07;;;24.10;58.00;;;;;;4925627;28;20468;-89
2021/06/05 01:37:23;;;;;;;7.37;6.30;;;24.10;58.10;;;;;;4963703;28;116016;-89
2021/06/05 01:39:56;;;;;;;7.13;6.05;;;24.10;58.10;;;;;;4949063;29;20043;-89
2021/06/05 01:42:32;;;;;;;7.57;6.60;;;24.10;58.10;;;;;;4935174;29;20134;-89
2021/06/05 01:44:58;;;;;;;;;;;24.00;58.10;;;;;;4924246;29;20027;-89
2021/06/05 01:47:25;;;;;;;6.22;5.32;;;24.00;57.90;;;;;;4955639;29;19976;-89
2021/06/05 01:49:53;;;;;;;6.85;6.15;;;24.00;57.90;;;;;;4911179;29;20031;-89
2021/06/05 01:52:31;;;;;;;7.50;6.68;;;23.90;58.00;;;;;;4944794;29;20034;-87
2021/06/05 01:55:23;;;;;;;7.75;6.95;;;23.90;58.10;;;;;;4944255;29;20027;-89
2021/06/05 01:57:56;;;;;;;6.72;6.03;;;23.90;58.30;;;;;;4921223;29;20118;-89
2021/06/05 02:00:36;;;;;;;7.60;6.55;;;23.90;58.20;;;;;;4961854;28;20035;-88
2021/06/05 02:03:05;;;;;;;7.82;7.03;;;23.90;58.20;;;;;;4942649;29;20024;-88
2021/06/05 02:05:35;;;;;;;7.20;6.50;;;23.80;58.10;;;;;;4932486;29;20023;-86
2021/06/05 02:08:10;;;;;;;7.85;7.03;;;23.80;58.20;;;;;;4924343;29;20066;-88
2021/06/05 02:10:37;;;;;;;9.10;8.10;;;23.80;58.20;;;;;;4923094;29;20093;-87
2021/06/05 02:13:16;;;;;;;8.80;7.78;;;23.80;58.30;;;;;;4924105;29;20079;-89
2021/06/05 02:16:07;;;;;;;8.95;8.05;;;23.70;58.30;;;;;;4936896;29;20413;-87
2021/06/05 02:18:44;;;;;;;9.50;8.10;;;23.70;58.40;;;;;;4947125;29;20097;-89
2021/06/05 02:21:17;;;;;;;8.90;8.00;;;23.70;58.40;;;;;;4916373;29;20042;-89
2021/06/05 02:23:57;;;;;;;9.38;8.35;;;23.70;58.40;;;;;;4933828;29;20086;-87
2021/06/05 02:26:24;;;;;;;9.55;8.57;;;23.70;58.50;;;;;;4944228;29;20039;-85
2021/06/05 02:28:57;;;;;;;9.05;8.15;;;23.60;58.40;;;;;;4935646;29;20035;-89
2021/06/05 02:31:26;;;;;;;10.63;9.40;;;23.60;58.60;;;;;;4930140;29;20158;-88
2021/06/05 02:33:55;;;;;;;10.18;9.18;;;23.60;58.60;;;;;;4955357;29;20027;-89
2021/06/05 02:36:22;;;;;;;11.05;9.85;;;23.60;58.60;;;;;;4938006;28;20055;-89
2021/06/05 02:38:50;;;;;;;11.55;10.38;;;23.50;58.60;;;;;;4934519;29;20126;-89
2021/06/05 02:41:23;;;;;;;11.30;10.20;;;23.50;58.60;;;;;;4952040;29;20033;-89
2021/06/05 02:43:52;;;;;;;12.15;10.85;;;23.50;58.70;;;;;;4959961;28;20158;-89
2021/06/05 02:46:20;;;;;;;11.77;10.52;;;23.60;58.80;;;;;;4953680;29;20102;-90
2021/06/05 02:48:53;;;;;;;12.48;11.18;;;23.50;58.80;;;;;;4939530;29;20035;-89
2021/06/05 02:51:26;;;;;;;12.75;11.30;;;23.50;58.80;;;;;;4922864;28;20051;-90
2021/06/05 02:53:54;;;;;;;12.48;11.18;;;23.40;58.80;;;;;;4940251;29;20540;-89
2021/06/05 02:56:23;;;;;;;12.82;11.52;;;23.40;58.70;;;;;;4924618;28;20029;-88
2021/06/05 02:58:49;;;;;;;12.23;10.93;;;23.40;58.70;;;;;;4911424;29;20048;-89
2021/06/05 03:01:19;;;;;;;12.02;10.77;;;23.40;58.80;;;;;;4909236;29;20031;-90
2021/06/05 03:03:47;;;;;;;13.60;12.20;;;23.40;58.80;;;;;;4936465;29;20219;-89
2021/06/05 03:06:13;;;;;;;13.55;11.88;;;23.40;58.80;;;;;;4938816;29;20131;-89
2021/06/05 03:08:42;;;;;;;13.27;11.93;;;23.30;58.80;;;;;;4951549;29;20126;-90
2021/06/05 03:11:16;;;;;;;13.80;12.38;;;23.30;58.80;;;;;;4949531;29;20041;-91
2021/06/05 03:13:43;;;;;;;13.55;12.15;;;23.30;58.80;;;;;;4953994;28;20023;-90
2021/06/05 03:16:11;;;;;;;14.73;13.25;;;23.30;58.80;;;;;;4936670;29;20051;-90
2021/06/05 03:18:43;;;;;;;14.70;13.10;;;23.30;58.80;;;;;;4922462;29;20039;-91
2021/06/05 03:21:15;;;;;;;14.23;12.73;;;23.20;58.80;;;;;;4943174;29;20027;-88
2021/06/05 03:23:43;;;;;;;16.63;13.82;;;23.20;58.80;;;;;;4952119;29;20019;-91
2021/06/05 03:26:16;;;;;;;15.80;13.90;;;23.20;58.90;;;;;;4914355;29;20066;-91
2021/06/05 03:28:44;;;;;;;14.30;12.77;;;23.10;58.90;;;;;;4938915;28;20027;-90
2021/06/05 03:31:13;;;;;;;15.90;13.27;;;23.10;58.90;;;;;;4920243;29;20063;-91
2021/06/05 03:33:41;;;;;;;16.75;14.32;;;23.10;59.00;;;;;;4938022;29;20039;-91
2021/06/05 03:36:09;;;;;;;16.52;14.40;;;23.10;59.00;;;;;;4947119;28;20051;-92
2021/06/05 03:38:35;;;;;;;17.27;15.48;;;23.00;59.00;;;;;;4935171;29;20122;-91
2021/06/05 03:41:04;;;;;;;16.35;14.05;;;23.00;59.10;;;;;;4907024;29;20035;-91
2021/06/05 03:43:30;;;;;;;17.88;14.82;;;23.00;59.00;;;;;;4929974;29;20039;-91
2021/06/05 03:45:57;;;;;;;17.30;15.25;;;23.00;59.00;;;;;;4949416;29;20082;-90
2021/06/05 03:48:26;;;;;;;16.75;14.98;;;22.90;59.00;;;;;;4931341;29;20027;-89
2021/06/05 03:50:54;;;;;;;17.00;14.85;;;22.90;59.10;;;;;;4921895;29;20046;-89
2021/06/05 03:53:24;;;;;;;16.92;14.70;;;22.90;59.10;;;;;;4919540;29;20035;-90
2021/06/05 03:55:52;;;;;;;17.77;15.68;;;22.90;59.10;;;;;;4946248;29;20030;-90
2021/06/05 03:58:24;;;;;;;17.63;15.23;;;22.80;59.10;;;;;;4916744;29;20061;-89
2021/06/05 04:00:50;;;;;;;17.48;15.15;;;22.80;59.20;;;;;;4933148;29;20031;-89
2021/06/05 04:03:16;;;;;;;17.83;14.95;;;22.80;59.20;;;;;;4950818;28;20544;-89
2021/06/05 04:05:43;;;;;;;17.45;14.57;;;22.70;59.10;;;;;;4945074;29;20031;-90
2021/06/05 04:08:10;;;;;;;16.58;14.57;;;22.70;59.20;;;;;;4937293;29;20504;-88
2021/06/05 04:10:37;;;;;;;16.58;14.30;;;22.70;59.20;;;;;;4938724;29;20035;-87
2021/06/05 04:13:03;;;;;;;17.45;14.90;;;22.70;59.20;;;;;;4935636;29;20050;-89
2021/06/05 04:15:30;;;;;;;16.75;14.65;;;22.60;59.20;;;;;;4928807;29;20043;-90
2021/06/05 04:18:12;;;;;;;17.95;15.05;;;22.60;59.30;;;;;;4918488;29;20099;-89
2021/06/05 04:20:40;;;;;;;18.73;14.57;;;22.60;59.40;;;;;;4953865;29;20031;-88
2021/06/05 04:23:07;;;;;;;18.80;15.43;;;22.60;59.40;;;;;;4937186;29;20032;-89
2021/06/05 04:25:33;;;;;;;17.58;14.27;;;22.60;59.50;;;;;;4928389;29;20027;-88
2021/06/05 04:28:00;;;;;;;19.73;15.27;;;22.60;59.50;;;;;;4930548;29;20027;-89
2021/06/05 04:30:28;;;;;;;18.42;15.35;;;22.50;59.40;;;;;;4923413;29;20023;-88
2021/06/05 04:32:54;;;;;;;18.48;14.95;;;22.50;59.50;;;;;;4925519;29;20023;-88
2021/06/05 04:35:21;;;;;;;18.92;15.10;;;22.50;59.60;;;;;;4925523;29;20026;-88
2021/06/05 04:37:46;;;;;;;17.48;14.57;;;22.50;59.70;;;;;;4970698;28;20040;-88
2021/06/05 04:40:13;;;;;;;17.27;14.82;;;22.50;59.70;;;;;;4934080;28;20042;-88
2021/06/05 04:42:40;;;;;;;19.52;15.15;;;22.40;59.70;;;;;;4943930;28;20070;-83
2021/06/05 04:45:07;;;;;;;19.10;14.73;;;22.40;59.70;;;;;;4959461;28;20031;-85
2021/06/05 04:47:34;;;;;;;17.40;14.23;;;22.40;59.80;;;;;;4957480;28;20042;-88
2021/06/05 04:50:00;;;;;;;18.23;15.27;;;22.40;59.80;;;;;;4956546;28;20027;-88
2021/06/05 04:52:26;;;;;;;16.25;13.27;;;22.40;59.80;;;;;;4943153;28;20042;-88
2021/06/05 04:54:52;;;;;;;17.77;14.70;;;22.40;59.80;;;;;;4955562;28;20035;-88
2021/06/05 04:57:18;;;;;;;18.15;14.55;;;22.40;59.80;;;;;;4959587;28;20076;-89
2021/06/05 04:59:44;;;;;;;18.67;14.85;;;22.30;59.80;;;;;;4954788;29;20373;-86
2021/06/05 05:02:10;;;;;;;19.20;15.45;;;22.30;59.90;;;;;;4938233;28;20031;-87
2021/06/05 05:04:36;;;;;;;17.48;15.02;;;22.30;59.90;;;;;;4959686;28;20037;-88
2021/06/05 05:07:01;;;;;;;20.25;14.80;;;22.30;59.90;;;;;;4932080;28;20082;-87
2021/06/05 05:09:27;;;;;;;20.17;15.30;;;22.30;59.90;;;;;;4975335;28;20043;-88
2021/06/05 05:11:53;;;;;;;17.75;14.32;;;22.30;60.00;;;;;;4950394;28;20031;-88
2021/06/05 05:14:19;;;;;;;19.08;15.48;;;22.20;59.90;;;;;;4921973;29;20034;-87
2021/06/05 05:16:45;;;;;;;16.88;14.10;;;22.20;60.00;;;;;;4934318;28;20436;-87
2021/06/05 05:19:11;;;;;;;18.58;14.98;;;22.20;60.00;;;;;;4963467;28;20043;-88
2021/06/05 05:21:37;;;;;;;17.92;14.68;;;22.20;60.00;;;;;;4951690;28;20045;-88
2021/06/05 05:24:04;;;;;;;17.17;14.10;;;22.20;60.10;;;;;;4967620;28;20037;-85
2021/06/05 05:26:29;;;;;;;17.65;14.00;;;22.20;60.20;;;;;;4971917;28;20058;-87
2021/06/05 05:28:55;;;;;;;18.55;14.77;;;22.20;60.10;;;;;;4958479;28;20043;-87
2021/06/05 05:31:25;;;;;;;17.50;13.93;;;22.20;60.20;;;;;;4918244;28;20026;-88
2021/06/05 05:33:51;;;;;;;17.23;14.25;;;22.10;60.10;;;;;;4959598;28;20365;-86
2021/06/05 05:36:24;;;;;;;16.92;13.85;;;22.20;60.20;;;;;;4939772;28;20046;-88
2021/06/05 05:38:51;;;;;;;18.67;13.98;;;22.10;60.20;;;;;;4939679;29;20039;-87
2021/06/05 05:41:19;;;;;;;17.38;14.25;;;22.10;60.20;;;;;;4939632;29;20600;-87
2021/06/05 05:43:45;;;;;;;16.35;13.60;;;22.10;60.30;;;;;;4954207;29;20058;-87
2021/06/05 05:46:12;;;;;;;16.98;13.65;;;22.10;60.30;;;;;;4958907;28;20562;-87
2021/06/05 05:48:39;;;;;;;16.55;13.00;;;22.10;60.30;;;;;;4959473;28;20408;-87
2021/06/05 05:51:07;;;;;;;17.63;13.68;;;22.10;60.30;;;;;;4969731;28;20011;-87
2021/06/05 05:53:35;;;;;;;16.63;13.65;;;22.00;60.40;;;;;;4933790;28;20387;-87
2021/06/05 05:56:00;;;;;;;18.15;13.95;;;22.10;60.40;;;;;;4936139;28;20042;-87
2021/06/05 05:58:26;;;;;;;17.20;13.52;;;22.00;60.40;;;;;;4973820;28;20047;-87
2021/06/05 06:00:53;;;;;;;16.85;13.55;;;22.00;60.50;;;;;;4942070;28;20019;-88
2021/06/05 06:03:21;;;;;;;18.63;13.82;;;22.00;60.50;;;;;;4975122;28;20396;-88
2021/06/05 06:05:47;;;;;;;16.83;13.30;;;22.00;60.60;;;;;;4972132;28;20030;-88
2021/06/05 06:08:15;;;;;;;15.60;12.75;;;22.00;60.60;;;;;;4927086;28;20038;-88
2021/06/05 06:10:42;;;;;;;17.95;13.48;;;22.00;60.60;;;;;;4967822;28;20046;-87
2021/06/05 06:13:08;;;;;;;17.08;13.52;;;22.00;60.60;;;;;;4935819;29;20035;-87
2021/06/05 06:15:35;;;;;;;17.05;13.55;;;22.00;60.70;;;;;;4942336;28;20472;-88
2021/06/05 06:18:03;;;;;;;16.80;13.18;;;22.00;60.70;;;;;;4949062;29;20114;-88
2021/06/05 06:20:31;;;;;;;19.20;14.35;;;22.00;60.80;;;;;;4942997;28;20069;-89
2021/06/05 06:22:57;;;;;;;16.83;13.18;;;22.00;60.80;;;;;;4964905;28;20034;-89
2021/06/05 06:25:27;;;;;;;17.13;13.25;;;22.00;60.90;;;;;;4939612;28;20411;-88
2021/06/05 06:27:53;;;;;;;17.50;13.35;;;22.00;61.00;;;;;;4969446;28;20031;-88
2021/06/05 06:30:38;;;;;;;16.65;12.68;;;22.00;60.90;;;;;;4954492;28;20027;-88
2021/06/05 06:33:06;;;;;;;14.57;11.43;;;21.90;61.00;;;;;;4954854;28;20031;-89
2021/06/05 06:35:33;;;;;;;16.48;12.25;;;21.90;60.90;;;;;;4970660;28;20038;-89
2021/06/05 06:37:59;;;;;;;16.05;11.88;;;22.00;61.00;;;;;;4918811;29;20047;-87
2021/06/05 06:40:30;;;;;;;14.55;11.27;;;22.00;61.10;;;;;;4966400;28;20082;-84
2021/06/05 06:42:57;;;;;;;15.43;11.25;;;22.00;61.10;;;;;;4974067;28;20030;-90
2021/06/05 06:45:24;;;;;;;15.00;11.07;;;21.90;61.00;;;;;;4946081;29;20023;-90
2021/06/05 06:47:51;;;;;;;14.80;11.90;;;21.90;61.10;;;;;;4962300;28;20117;-90
2021/06/05 06:50:19;;;;;;;15.45;11.70;;;22.00;61.20;;;;;;4967261;28;20037;-90
2021/06/05 06:52:44;;;;;;;14.13;11.23;;;21.90;61.20;;;;;;4949382;28;20038;-89
2021/06/05 06:55:11;;;;;;;15.85;11.45;;;22.00;61.30;;;;;;4955130;28;20026;-90
2021/06/05 06:57:37;;;;;;;14.55;10.82;;;21.90;61.20;;;;;;4947439;28;20095;-90
2021/06/05 07:00:07;;;;;;;14.32;10.85;;;21.90;61.30;;;;;;4939471;29;20110;-90
2021/06/05 07:02:33;;;;;;;13.23;10.43;;;22.00;61.40;;;;;;4974829;28;20027;-89
2021/06/05 07:04:58;;;;;;;13.02;10.07;;;22.00;61.30;;;;;;4937652;29;20031;-90
2021/06/05 07:07:24;;;;;;;14.85;10.77;;;21.90;61.30;;;;;;4944074;28;20030;-90
2021/06/05 07:09:50;;;;;;;11.75;9.75;;;22.00;61.30;;;;;;4921955;29;20114;-92
2021/06/05 07:12:16;;;;;;;14.48;11.23;;;22.00;61.40;;;;;;4970992;28;20069;-92
2021/06/05 07:14:42;;;;;;;12.20;9.52;;;22.00;61.40;;;;;;4960080;28;20069;-91
2021/06/05 07:17:08;;;;;;;12.40;9.63;;;22.00;61.40;;;;;;4926018;29;20023;-91
2021/06/05 07:19:35;;;;;;;11.82;9.23;;;22.00;61.50;;;;;;4946978;29;20187;-92
2021/06/05 07:22:04;;;;;;;11.35;8.65;;;22.00;61.50;;;;;;4954288;28;20209;-92
2021/06/05 07:24:30;;;;;;;11.77;8.75;;;22.00;61.60;;;;;;4951999;28;20035;-90
2021/06/05 07:26:56;;;;;;;11.45;8.13;;;22.00;61.60;;;;;;4980078;28;20019;-89
2021/06/05 07:29:22;;;;;;;10.40;8.07;;;22.00;61.60;;;;;;4971429;28;20130;-92
2021/06/05 07:31:51;;;;;;;11.23;8.82;;;22.00;61.60;;;;;;4951916;28;20035;-92
2021/06/05 07:34:22;;;;;;;10.35;7.85;;;22.00;61.70;;;;;;4954291;28;20289;-92
2021/06/05 07:36:54;;;;;;;10.85;8.35;;;22.00;61.80;;;;;;4961611;28;20097;-91
2021/06/05 07:39:27;;;;;;;10.20;7.97;;;22.00;61.80;;;;;;4948095;28;20035;-88
2021/06/05 07:41:54;;;;;;;9.82;7.75;;;22.10;61.90;;;;;;4940060;29;20034;-89
2021/06/05 07:44:22;;;;;;;9.38;7.32;;;22.00;61.80;;;;;;4971867;28;20086;-88
2021/06/05 07:46:51;;;;;;;9.50;7.47;;;22.10;62.00;;;;;;4941868;28;20027;-90
2021/06/05 07:49:17;;;;;;;9.45;7.38;;;22.10;62.00;;;;;;4955681;28;20038;-86
2021/06/05 07:51:43;;;;;;;10.77;7.95;;;22.10;62.00;;;;;;4951459;28;20045;-85
2021/06/05 07:54:09;;;;;;;9.38;7.13;;;22.10;62.00;;;;;;4969204;28;20306;-84
2021/06/05 07:56:36;;;;;;;9.52;6.90;;;22.10;62.00;;;;;;4962075;28;20027;-85
2021/06/05 07:59:02;;;;;;;8.65;6.90;;;22.10;62.00;;;;;;4970040;28;20093;-86
2021/06/05 08:01:28;;;;;;;9.73;7.53;;;22.10;62.00;;;;;;4957301;28;20086;-85
2021/06/05 08:03:54;;;;;;;9.23;7.43;;;22.10;61.90;;;;;;4957309;28;20383;-85
2021/06/05 08:06:20;;;;;;;8.75;6.70;;;22.10;61.90;;;;;;4958133;28;20134;-86
2021/06/05 08:08:47;;;;;;;9.52;7.07;;;22.20;61.90;;;;;;4956984;28;20039;-86
2021/06/05 08:11:13;;;;;;;8.38;6.85;;;22.10;61.80;;;;;;4953989;28;20031;-86
2021/06/05 08:13:39;;;;;;;8.20;6.50;;;22.20;61.90;;;;;;4921421;29;20535;-86
2021/06/05 08:16:06;;;;;;;9.07;6.63;;;22.20;61.80;;;;;;4959699;28;20039;-84
2021/06/05 08:18:32;;;;;;;8.65;6.90;;;22.20;61.80;;;;;;4933813;28;20043;-85
2021/06/05 08:21:05;;;;;;;9.27;7.22;;;22.20;61.80;;;;;;4966160;28;20076;-87
2021/06/05 08:23:33;;;;;;;8.85;6.43;;;22.20;61.80;;;;;;4949529;28;20030;-83
2021/06/05 08:26:00;;;;;;;7.32;5.82;;;22.20;62.40;;;;;;4953887;28;20023;-86
2021/06/05 08:28:26;;;;;;;8.25;6.45;;;22.20;61.70;;;;;;4973780;28;20066;-88
2021/06/05 08:30:56;;;;;;;7.75;6.40;;;22.20;61.70;;;;;;4973332;28;20029;-86
2021/06/05 08:33:23;;;;;;;8.77;6.18;;;22.30;61.80;;;;;;4976829;28;20022;-91
2021/06/05 08:35:49;;;;;;;7.65;6.03;;;22.20;61.70;;;;;;4928841;28;20087;-92
2021/06/05 08:38:19;;;;;;;7.47;5.50;;;22.30;61.90;;;;;;4944242;28;20077;-86
2021/06/05 08:40:58;;;;;;;7.43;5.57;;;22.30;62.00;;;;;;4975495;28;20046;-88
2021/06/05 08:43:35;;;;;;;7.65;5.90;;;22.30;62.10;;;;;;4958318;28;20031;-88
2021/06/05 08:46:03;;;;;;;6.60;5.32;;;22.30;62.10;;;;;;4960628;28;20022;-91
2021/06/05 08:48:29;;;;;;;7.38;5.53;;;22.30;62.00;;;;;;4968315;28;20043;-89
2021/06/05 08:51:09;;;;;;;6.45;4.97;;;22.30;62.00;;;;;;4976567;28;20472;-91
2021/06/05 08:53:35;;;;;;;7.93;5.35;;;22.30;62.00;;;;;;4949456;28;20040;-90
2021/06/05 08:56:05;;;;;;;7.57;5.28;;;22.30;61.90;;;;;;4961488;28;20039;-92
2021/06/05 08:58:37;;;;;;;7.07;5.65;;;22.40;62.10;;;;;;4952840;28;20041;-91
2021/06/05 09:01:10;;;;;;;6.70;5.20;;;22.30;62.00;;;;;;4941047;29;20106;-90
2021/06/05 09:03:38;;;;;;;6.78;5.18;;;22.40;62.00;;;;;;4960146;28;20114;-91
2021/06/05 09:06:16;;;;;;;7.53;5.88;;;22.40;62.00;;;;;;4933343;28;20121;-89
2021/06/05 09:08:42;;;;;;;7.28;5.03;;;22.40;62.20;;;;;;4964386;28;20452;-90
2021/06/05 09:11:09;;;;;;;6.75;5.57;;;22.40;62.10;;;;;;4951993;28;20033;-88
2021/06/05 09:13:36;;;;;;;5.82;4.63;;;22.40;62.20;;;;;;4957008;29;20114;-90
2021/06/05 09:16:20;;;;;;;6.70;5.18;;;22.40;62.10;;;;;;4974958;28;20033;-89
2021/06/05 09:18:48;;;;;;;6.90;5.10;;;22.40;62.20;;;;;;4948178;28;20098;-90
2021/06/05 09:21:39;;;;;;;6.30;4.80;;;22.40;62.00;;;;;;4966671;28;20038;-89
2021/06/05 09:24:26;;;;;;;6.88;5.13;;;22.40;62.10;;;;;;4948203;28;20031;-92
2021/06/05 09:27:09;;;;;;;6.05;4.43;;;22.40;62.10;;;;;;4968666;28;20031;-90
2021/06/05 09:29:57;;;;;;;6.32;4.63;;;22.40;62.00;;;;;;4956575;28;20035;-91
2021/06/05 09:32:28;;;;;;;6.40;4.82;;;22.40;62.00;;;;;;4972881;28;20039;-91
2021/06/05 09:35:04;;;;;;;5.57;4.30;;;22.40;61.90;;;;;;4956449;28;20023;-90
2021/06/05 09:37:32;;;;;;;5.72;4.38;;;22.40;61.90;;;;;;4983177;28;20046;-91
2021/06/05 09:40:07;;;;;;;5.72;4.40;;;22.40;61.80;;;;;;4978696;28;20129;-90
2021/06/05 09:42:35;;;;;;;;;;;22.40;61.90;;;;;;4966564;28;20027;-89
2021/06/05 09:45:03;;;;;;;5.10;3.67;;;22.50;61.60;;;;;;4969193;28;19910;-93
2021/06/05 09:47:31;;;;;;;5.10;3.92;;;22.50;61.60;;;;;;4975233;28;20046;-89
2021/06/05 09:50:16;;;;;;;5.80;4.03;;;22.50;61.70;;;;;;4965789;28;20026;-90
2021/06/05 09:52:42;;;;;;;5.55;4.00;;;22.50;62.60;;;;;;4995042;28;20037;-91
2021/06/05 09:55:14;;;;;;;5.82;4.18;;;22.50;61.80;;;;;;4946798;28;20030;-90
2021/06/05 09:57:45;;;;;;;5.40;4.28;;;22.50;61.90;;;;;;4988983;28;20030;-91
2021/06/05 10:00:23;;;;;;;5.88;4.60;;;22.50;61.80;;;;;;4975256;28;20042;-91
2021/06/05 10:02:52;;;;;;;4.47;3.55;;;22.50;61.90;;;;;;4971315;28;20026;-91
2021/06/05 10:05:28;;;;;;;5.18;3.95;;;22.50;61.80;;;;;;4972131;28;20114;-88
2021/06/05 10:08:00;;;;;;;5.43;4.13;;;22.50;61.90;;;;;;4976229;28;20030;-91
2021/06/05 10:10:45;;;;;;;5.60;4.10;;;22.60;61.90;;;;;;4969604;28;20027;-91
2021/06/05 10:13:16;;;;;;;5.00;3.80;;;22.60;62.00;;;;;;4959259;28;20122;-91
2021/06/05 10:16:08;;;;;;;4.93;3.90;;;22.60;61.80;;;;;;4956191;28;20027;-91
2021/06/05 10:18:46;;;;;;;5.05;3.90;;;22.60;61.90;;;;;;4956941;28;20030;-91
2021/06/05 10:21:23;;;;;;;5.03;3.72;;;22.60;61.80;;;;;;4958622;28;20428;-91
2021/06/05 10:23:58;;;;;;;5.18;3.95;;;22.60;61.80;;;;;;4972020;28;20062;-91
2021/06/05 10:26:31;;;;;;;4.68;3.78;;;22.70;61.90;;;;;;4973489;28;20082;-92
2021/06/05 10:29:02;;;;;;;5.22;3.60;;;22.70;62.10;;;;;;4956238;28;20027;-90
2021/06/05 10:31:28;;;;;;;4.75;3.72;;;22.70;61.80;;;;;;4971069;28;20027;-91
2021/06/05 10:34:03;;;;;;;5.18;3.47;;;22.70;61.80;;;;;;4972580;28;20077;-90
2021/06/05 10:36:44;;;;;;;5.30;3.67;;;22.70;61.80;;;;;;4979997;28;20035;-91
2021/06/05 10:39:17;;;;;;;4.68;3.65;;;22.70;61.90;;;;;;4942657;28;20062;-87
2021/06/05 10:41:52;;;;;;;5.47;3.83;;;22.70;61.80;;;;;;4958515;28;20061;-87
2021/06/05 10:44:18;;;;;;;4.30;3.50;;;22.80;61.80;;;;;;4971737;28;20062;-89
2021/06/05 10:47:08;;;;;;;4.68;3.40;;;22.80;61.70;;;;;;4946238;28;20027;-90
2021/06/05 10:49:56;;;;;;;5.00;3.53;;;22.80;61.90;;;;;;4957735;28;20468;-88
2021/06/05 10:52:30;;;;;;;4.45;3.55;;;22.80;62.50;;;;;;4962124;28;20027;-92
2021/06/05 10:55:11;;;;;;;4.22;3.17;;;22.80;61.80;;;;;;4962115;28;20114;-87
2021/06/05 10:57:43;;;;;;;4.63;3.60;;;22.80;61.80;;;;;;4943508;28;20050;-85
2021/06/05 11:00:32;;;;;;;4.47;3.53;;;22.80;61.70;;;;;;4956915;28;20027;-89
2021/06/05 11:02:58;;;;;;;4.45;3.50;;;22.90;61.90;;;;;;4958431;28;20066;-88
2021/06/05 11:05:27;;;;;;;5.07;3.55;;;22.90;61.70;;;;;;4957488;28;20023;-90
2021/06/05 11:08:08;;;;;;;4.55;3.53;;;22.90;61.80;;;;;;4943816;28;20023;-87
2021/06/05 11:10:53;;;;;;;4.82;3.60;;;23.00;61.90;;;;;;4968668;28;20034;-86
2021/06/05 11:13:35;;;;;;;;;;;23.00;61.90;;;;;;4958607;28;20023;-90
2021/06/05 11:16:07;;;;;;;3.90;3.30;;;22.90;61.40;;;;;;4986036;28;20428;-90
2021/06/05 11:18:42;;;;;;;4.88;3.30;;;23.00;61.40;;;;;;4964445;28;20054;-89
2021/06/05 11:21:23;;;;;;;4.32;3.45;;;22.90;61.60;;;;;;4974210;28;20031;-90
2021/06/05 11:23:58;;;;;;;4.75;3.67;;;22.90;61.70;;;;;;4973295;28;20105;-90
2021/06/05 11:26:39;;;;;;;5.07;3.95;;;23.00;61.80;;;;;;4969424;28;20027;-91
2021/06/05 11:29:20;;;;;;;4.57;3.58;;;23.00;61.80;;;;;;4955145;28;20391;-88
2021/06/05 11:32:03;;;;;;;4.53;3.40;;;23.00;61.80;;;;;;4974891;28;20082;-90
2021/06/05 11:34:28;;;;;;;5.40;3.53;;;23.00;61.80;;;;;;4943650;28;20129;-92
2021/06/05 11:37:06;;;;;;;5.13;3.92;;;23.10;61.70;;;;;;4970754;28;20054;-87
2021/06/05 11:39:32;;;;;;;4.72;3.53;;;23.10;61.80;;;;;;4960903;28;20046;-90
2021/06/05 11:42:25;;;;;;;4.75;3.55;;;23.10;61.70;;;;;;4957273;28;20030;-86
2021/06/05 11:44:57;;;;;;;4.68;3.63;;;23.10;61.80;;;;;;4957988;28;20085;-87
2021/06/05 11:47:22;;;;;;;4.47;3.60;;;23.10;61.90;;;;;;4951626;28;20035;-88
2021/06/05 11:49:48;;;;;;;5.07;3.80;;;23.10;61.70;;;;;;4956301;28;20371;-82
2021/06/05 11:52:26;;;;;;;4.50;3.33;;;23.10;61.70;;;;;;4969674;28;20027;-84
2021/06/05 11:54:57;;;;;;;4.13;3.20;;;23.10;61.70;;;;;;4955899;28;20459;-84
2021/06/05 11:57:32;;;;;;;4.80;3.63;;;23.10;61.60;;;;;;4956379;28;20031;-84
2021/06/05 12:00:07;;;;;;;4.63;3.38;;;23.20;61.70;;;;;;4954884;28;20027;-85
2021/06/05 12:02:38;;;;;;;4.60;3.22;;;23.10;61.60;;;;;;4950847;29;20043;-84
2021/06/05 12:05:12;;;;;;;4.47;3.40;;;23.20;61.60;;;;;;4954664;28;20023;-84
2021/06/05 12:07:41;;;;;;;;;;;23.20;61.70;;;;;;4949810;28;20035;-84
2021/06/05 12:10:10;;;;;;;4.35;3.20;;;23.20;61.40;;;;;;4970853;28;19906;-84
2021/06/05 12:12:47;;;;;;;4.47;3.53;;;23.20;61.40;;;;;;4965295;28;20035;-84
2021/06/05 12:15:20;;;;;;;4.35;3.42;;;23.20;61.50;;;;;;4967576;28;20016;-85
2021/06/05 12:17:56;;;;;;;4.00;3.15;;;23.20;61.60;;;;;;4971718;28;20467;-85
2021/06/05 12:20:23;;;;;;;4.00;3.17;;;23.20;61.60;;;;;;4955501;28;20026;-84
2021/06/05 12:22:52;;;;;;;3.80;2.88;;;23.20;61.60;;;;;;4956926;28;20452;-84
2021/06/05 12:25:31;;;;;;;5.57;3.63;;;23.20;61.60;;;;;;4973852;28;20030;-85
2021/06/05 12:28:16;;;;;;;4.60;3.47;;;23.20;61.60;;;;;;4965138;28;20037;-84
2021/06/05 12:30:48;;;;;;;4.78;3.53;;;23.20;61.60;;;;;;4967884;28;20086;-85
2021/06/05 12:33:28;;;;;;;5.13;3.90;;;23.30;61.60;;;;;;4971445;28;20027;-85
2021/06/05 12:35:54;;;;;;;4.32;3.67;;;23.30;61.70;;;;;;4972468;28;20056;-85
2021/06/05 12:38:39;;;;;;;4.35;3.67;;;23.20;61.40;;;;;;4965231;28;20056;-84
2021/06/05 12:41:07;;;;;;;;;;;23.20;61.60;;;;;;4970250;28;20427;-84
2021/06/05 12:43:36;;;;;;;3.65;2.80;;;23.20;61.30;;;;;;4971917;28;20057;-85
2021/06/05 12:46:09;;;;;;;4.68;3.42;;;23.30;61.30;;;;;;4973610;28;20027;-85
2021/06/05 12:48:36;;;;;;;3.97;3.17;;;23.20;61.40;;;;;;4964136;28;20038;-84
2021/06/05 12:51:06;;;;;;;3.83;3.40;;;23.30;61.50;;;;;;4970021;28;20101;-85
2021/06/05 12:53:32;;;;;;;4.15;3.28;;;23.20;61.50;;;;;;4979743;28;20023;-84
2021/06/05 12:56:14;;;;;;;4.90;3.85;;;23.20;61.40;;;;;;4980780;28;20106;-85